createdAt,value
2022-08-03T00:00:50.059Z,2.3
2022-08-03T00:01:58.635Z,4.9
2022-08-03T00:03:07.086Z,4.9
2022-08-03T00:04:15.373Z,4.9
2022-08-03T00:05:23.965Z,3
2022-08-03T00:06:36.583Z,3
2022-08-03T00:07:40.676Z,3
2022-08-03T00:08:49.253Z,2.5
2022-08-03T00:09:57.642Z,2.5
2022-08-03T00:11:06.006Z,2.5
2022-08-03T00:12:14.966Z,3.1
2022-08-03T00:13:22.957Z,3.1
2022-08-03T00:14:31.345Z,3.1
2022-08-03T00:15:39.935Z,2.1
2022-08-03T00:16:48.281Z,2.1
2022-08-03T00:17:56.658Z,2.1
2022-08-03T00:19:05.224Z,2
2022-08-03T00:20:13.621Z,2
2022-08-03T00:21:21.976Z,2
2022-08-03T00:22:30.553Z,2.7
2022-08-03T00:23:50.748Z,2.7
2022-08-03T00:24:47.346Z,2.7
2022-08-03T00:25:55.930Z,2.7
2022-08-03T00:27:04.287Z,2.7
2022-08-03T00:28:12.653Z,2.7
2022-08-03T00:29:21.244Z,2.3
2022-08-03T00:30:30.136Z,2.3
2022-08-03T00:31:40.302Z,2.3
2022-08-03T00:32:46.549Z,2.2
2022-08-03T00:33:58.515Z,2.2
2022-08-03T00:35:07.993Z,2.2
2022-08-03T00:36:11.861Z,3.1
2022-08-03T00:37:20.234Z,3.1
2022-08-03T00:38:28.592Z,3.1
2022-08-03T00:39:37.193Z,2.7
2022-08-03T00:40:45.562Z,2.7
2022-08-03T00:41:53.941Z,2.7
2022-08-03T00:43:02.536Z,2.4
2022-08-03T00:44:10.925Z,2.4
2022-08-03T00:45:19.341Z,2.4
2022-08-03T00:46:27.919Z,2.2
2022-08-03T00:47:36.288Z,2.2
2022-08-03T00:48:44.656Z,2.2
2022-08-03T00:49:53.270Z,2
2022-08-03T00:51:01.654Z,2
2022-08-03T00:52:10.056Z,2
2022-08-03T00:53:18.641Z,4
2022-08-03T00:54:27.028Z,4
2022-08-03T00:55:35.411Z,4
2022-08-03T00:56:59.388Z,2.6
2022-08-03T00:57:52.372Z,2.6
2022-08-03T00:59:00.764Z,2.6
2022-08-03T01:00:09.349Z,3.3
2022-08-03T01:01:17.830Z,3.3
2022-08-03T01:02:26.104Z,3.3
2022-08-03T01:03:34.689Z,2.7
2022-08-03T01:04:43.061Z,2.7
2022-08-03T01:05:51.428Z,2.7
2022-08-03T01:07:00.016Z,3.7
2022-08-03T01:08:08.400Z,3.7
2022-08-03T01:09:16.775Z,3.7
2022-08-03T01:10:25.365Z,2.9
2022-08-03T01:11:33.744Z,2.9
2022-08-03T01:12:42.120Z,2.9
2022-08-03T01:14:00.054Z,2
2022-08-03T01:14:59.102Z,2
2022-08-03T01:16:07.458Z,2
2022-08-03T01:17:16.046Z,2.3
2022-08-03T01:18:24.426Z,2.3
2022-08-03T01:19:32.800Z,2.3
2022-08-03T01:20:41.384Z,2.3
2022-08-03T01:21:49.783Z,2.3
2022-08-03T01:22:58.168Z,2.3
2022-08-03T01:24:06.783Z,2.1
2022-08-03T01:25:15.160Z,2.1
2022-08-03T01:26:23.528Z,2.1
2022-08-03T01:27:32.111Z,2.1
2022-08-03T01:28:40.501Z,2.1
2022-08-03T01:29:48.896Z,2.1
2022-08-03T01:30:57.464Z,2.9
2022-08-03T01:32:52.300Z,2.9
2022-08-03T01:33:14.235Z,2.9
2022-08-03T01:34:22.828Z,3.2
2022-08-03T01:35:31.195Z,3.2
2022-08-03T01:36:39.585Z,3.2
2022-08-03T01:37:48.171Z,3.1
2022-08-03T01:38:56.541Z,3.1
2022-08-03T01:40:04.947Z,3.1
2022-08-03T01:41:13.550Z,3.6
2022-08-03T01:42:21.920Z,3.6
2022-08-03T01:43:55.526Z,3.6
2022-08-03T01:44:38.897Z,5.2
2022-08-03T01:45:47.296Z,5.2
2022-08-03T01:46:55.680Z,5.2
2022-08-03T01:48:04.258Z,6.9
2022-08-03T01:49:12.686Z,6.9
2022-08-03T01:50:21.011Z,6.9
2022-08-03T01:51:57.799Z,5.4
2022-08-03T01:52:37.975Z,5.4
2022-08-03T01:53:46.380Z,5.4
2022-08-03T01:54:54.956Z,5.9
2022-08-03T01:56:03.322Z,5.9
2022-08-03T01:57:11.708Z,5.9
2022-08-03T01:58:20.312Z,7.3
2022-08-03T01:59:28.713Z,7.3
2022-08-03T02:00:37.266Z,7.3
2022-08-03T02:02:15.124Z,7.2
2022-08-03T02:02:54.093Z,7.2
2022-08-03T02:04:02.477Z,7.2
2022-08-03T02:05:11.322Z,5.9
2022-08-03T02:06:55.653Z,5.9
2022-08-03T02:07:27.823Z,5.9
2022-08-03T02:08:36.404Z,5
2022-08-03T02:09:44.797Z,5
2022-08-03T02:10:53.168Z,5
2022-08-03T02:12:01.756Z,5
2022-08-03T02:13:10.150Z,5
2022-08-03T02:14:18.541Z,5
2022-08-03T02:15:27.122Z,6.2
2022-08-03T02:16:35.527Z,6.2
2022-08-03T02:17:43.898Z,6.2
2022-08-03T02:18:52.495Z,5.1
2022-08-03T02:20:00.861Z,5.1
2022-08-03T02:21:10.908Z,5.1
2022-08-03T02:22:17.960Z,5
2022-08-03T02:23:26.246Z,5
2022-08-03T02:24:34.616Z,5
2022-08-03T02:25:43.198Z,4.3
2022-08-03T02:26:51.566Z,4.3
2022-08-03T02:27:59.946Z,4.3
2022-08-03T02:29:08.566Z,3.9
2022-08-03T02:30:16.941Z,3.9
2022-08-03T02:31:25.318Z,3.9
2022-08-03T02:32:33.912Z,4
2022-08-03T02:33:42.299Z,4
2022-08-03T02:34:50.671Z,4
2022-08-03T02:35:59.255Z,5.1
2022-08-03T02:37:07.648Z,5.1
2022-08-03T02:38:16.032Z,5.1
2022-08-03T02:39:24.631Z,2.9
2022-08-03T02:40:33.006Z,2.9
2022-08-03T02:41:41.397Z,2.9
2022-08-03T02:42:49.998Z,3.1
2022-08-03T02:44:05.473Z,3.1
2022-08-03T02:45:06.761Z,3.1
2022-08-03T02:46:15.351Z,3.7
2022-08-03T02:47:23.725Z,3.7
2022-08-03T02:48:32.107Z,3.7
2022-08-03T02:49:51.128Z,2.6
2022-08-03T02:50:49.077Z,2.6
2022-08-03T02:51:57.504Z,2.6
2022-08-03T02:53:06.083Z,2.8
2022-08-03T02:54:14.461Z,2.8
2022-08-03T02:55:22.865Z,2.8
2022-08-03T02:56:31.450Z,3.1
2022-08-03T02:57:39.901Z,3.1
2022-08-03T02:58:48.271Z,3.1
2022-08-03T02:59:56.922Z,3.7
2022-08-03T03:01:05.391Z,3.7
2022-08-03T03:02:13.856Z,3.7
2022-08-03T03:03:22.361Z,2.4
2022-08-03T03:04:33.113Z,2.4
2022-08-03T03:05:53.844Z,2.4
2022-08-03T03:06:48.753Z,3.9
2022-08-03T03:07:57.145Z,3.9
2022-08-03T03:09:05.508Z,3.9
2022-08-03T03:10:14.081Z,4.3
2022-08-03T03:11:22.476Z,4.3
2022-08-03T03:12:30.917Z,4.3
2022-08-03T03:13:39.557Z,3.1
2022-08-03T03:14:47.918Z,3.1
2022-08-03T03:15:56.319Z,3.1
2022-08-03T03:17:04.923Z,2.7
2022-08-03T03:18:13.305Z,2.7
2022-08-03T03:19:21.708Z,2.7
2022-08-03T03:20:30.657Z,2.9
2022-08-03T03:21:38.690Z,2.9
2022-08-03T03:22:47.107Z,2.9
2022-08-03T03:23:55.691Z,4.5
2022-08-03T03:25:04.058Z,4.5
2022-08-03T03:26:12.486Z,4.5
2022-08-03T03:27:21.075Z,3.5
2022-08-03T03:28:29.484Z,3.5
2022-08-03T03:29:39.331Z,3.5
2022-08-03T03:30:52.925Z,3.4
2022-08-03T03:31:54.827Z,3.4
2022-08-03T03:33:03.251Z,3.4
2022-08-03T03:34:11.865Z,3.9
2022-08-03T03:35:20.267Z,3.9
2022-08-03T03:36:28.634Z,3.9
2022-08-03T03:37:37.275Z,4
2022-08-03T03:38:45.664Z,4
2022-08-03T03:39:54.029Z,4
2022-08-03T03:41:02.647Z,5.6
2022-08-03T03:42:11.033Z,5.6
2022-08-03T03:43:19.393Z,5.6
2022-08-03T03:44:27.966Z,3
2022-08-03T03:45:36.338Z,3
2022-08-03T03:46:44.733Z,3
2022-08-03T03:47:53.415Z,4.2
2022-08-03T03:49:01.818Z,4.2
2022-08-03T03:50:10.198Z,4.2
2022-08-03T03:51:18.795Z,3.4
2022-08-03T03:52:27.206Z,3.4
2022-08-03T03:53:35.563Z,3.4
2022-08-03T03:54:44.146Z,3
2022-08-03T03:55:59.065Z,3
2022-08-03T03:57:00.964Z,3
2022-08-03T03:58:09.556Z,4.9
2022-08-03T03:59:17.925Z,4.9
2022-08-03T04:00:26.338Z,4.9
2022-08-03T04:01:34.929Z,5.5
2022-08-03T04:02:43.346Z,5.5
2022-08-03T04:03:51.700Z,5.5
2022-08-03T04:05:00.290Z,4
2022-08-03T04:06:08.658Z,4
2022-08-03T04:07:17.073Z,4
2022-08-03T04:08:25.656Z,3.8
2022-08-03T04:09:34.019Z,3.8
2022-08-03T04:10:42.505Z,3.8
2022-08-03T04:11:51.116Z,6.4
2022-08-03T04:12:59.485Z,6.4
2022-08-03T04:14:07.863Z,6.4
2022-08-03T04:15:16.474Z,4.6
2022-08-03T04:16:24.845Z,4.6
2022-08-03T04:17:33.223Z,4.6
2022-08-03T04:18:41.840Z,4.9
2022-08-03T04:19:50.201Z,4.9
2022-08-03T04:20:58.596Z,4.9
2022-08-03T04:22:07.212Z,5.3
2022-08-03T04:23:15.924Z,5.3
2022-08-03T04:24:26.492Z,5.3
2022-08-03T04:25:32.577Z,4.3
2022-08-03T04:26:40.942Z,4.3
2022-08-03T04:28:07.848Z,4.3
2022-08-03T04:28:57.927Z,4.4
2022-08-03T04:30:06.342Z,4.4
2022-08-03T04:31:14.707Z,4.4
2022-08-03T04:32:23.301Z,4.8
2022-08-03T04:33:32.414Z,4.8
2022-08-03T04:34:40.061Z,4.8
2022-08-03T04:35:58.694Z,4.9
2022-08-03T04:36:57.066Z,4.9
2022-08-03T04:38:05.430Z,4.9
2022-08-03T04:39:14.017Z,5.1
2022-08-03T04:40:22.752Z,5.1
2022-08-03T04:41:30.772Z,5.1
2022-08-03T04:42:39.360Z,5.9
2022-08-03T04:43:47.758Z,5.9
2022-08-03T04:45:00.566Z,5.9
2022-08-03T04:46:04.846Z,6.1
2022-08-03T04:47:13.245Z,6.1
2022-08-03T04:48:21.650Z,6.1
2022-08-03T04:49:30.337Z,6.2
2022-08-03T04:50:38.613Z,6.2
2022-08-03T04:51:47.025Z,6.2
2022-08-03T04:52:55.601Z,6.6
2022-08-03T04:54:03.985Z,6.6
2022-08-03T04:55:12.355Z,6.6
2022-08-03T04:56:20.936Z,7.7
2022-08-03T04:57:29.313Z,7.7
2022-08-03T04:58:37.689Z,7.7
2022-08-03T04:59:46.262Z,7.4
2022-08-03T05:00:54.635Z,7.4
2022-08-03T05:02:03.096Z,7.4
2022-08-03T05:03:19.753Z,6.9
2022-08-03T05:04:19.946Z,6.9
2022-08-03T05:05:29.410Z,6.9
2022-08-03T05:06:36.916Z,8
2022-08-03T05:07:45.274Z,8
2022-08-03T05:08:53.645Z,8
2022-08-03T05:10:03.098Z,6.7
2022-08-03T05:11:10.657Z,6.7
2022-08-03T05:12:19.042Z,6.7
2022-08-03T05:13:27.643Z,6.7
2022-08-03T05:14:36.008Z,6.7
2022-08-03T05:15:44.378Z,6.7
2022-08-03T05:16:53.009Z,8.3
2022-08-03T05:18:01.346Z,8.3
2022-08-03T05:19:09.716Z,8.3
2022-08-03T05:20:18.874Z,7.9
2022-08-03T05:21:26.671Z,7.9
2022-08-03T05:22:35.035Z,7.9
2022-08-03T05:23:43.608Z,7.6
2022-08-03T05:24:51.972Z,7.6
2022-08-03T05:26:00.339Z,7.6
2022-08-03T05:27:08.933Z,8.2
2022-08-03T05:28:17.298Z,8.2
2022-08-03T05:29:25.663Z,8.2
2022-08-03T05:30:34.613Z,7.1
2022-08-03T05:31:42.626Z,7.1
2022-08-03T05:32:51.025Z,7.1
2022-08-03T05:33:59.607Z,7.7
2022-08-03T05:35:56.379Z,7.7
2022-08-03T05:36:16.366Z,7.7
2022-08-03T05:37:24.951Z,6.5
2022-08-03T05:38:34.419Z,6.5
2022-08-03T05:39:41.710Z,6.5
2022-08-03T05:40:57.121Z,6.3
2022-08-03T05:41:58.693Z,6.3
2022-08-03T05:43:07.060Z,6.3
2022-08-03T05:44:15.632Z,6.2
2022-08-03T05:45:27.958Z,6.2
2022-08-03T05:46:32.356Z,6.2
2022-08-03T05:47:40.931Z,5.6
2022-08-03T05:48:49.307Z,5.6
2022-08-03T05:49:57.656Z,5.6
2022-08-03T05:51:06.239Z,5.7
2022-08-03T05:52:17.313Z,5.7
2022-08-03T05:53:23.006Z,5.7
2022-08-03T05:54:55.776Z,6.8
2022-08-03T05:55:39.969Z,6.8
2022-08-03T05:56:48.361Z,6.8
2022-08-03T05:57:56.970Z,4.3
2022-08-03T05:59:22.652Z,4.3
2022-08-03T06:00:13.698Z,4.3
2022-08-03T06:01:22.311Z,3.3
2022-08-03T06:02:30.650Z,3.3
2022-08-03T06:03:39.012Z,3.3
2022-08-03T06:04:47.597Z,5.4
2022-08-03T06:06:00.154Z,5.4
2022-08-03T06:07:04.337Z,5.4
2022-08-03T06:08:15.416Z,5.3
2022-08-03T06:09:21.275Z,5.3
2022-08-03T06:10:34.859Z,5.3
2022-08-03T06:11:38.241Z,6.4
2022-08-03T06:12:46.602Z,6.4
2022-08-03T06:13:55.015Z,6.4
2022-08-03T06:15:03.598Z,4.1
2022-08-03T06:16:11.963Z,4.1
2022-08-03T06:17:20.358Z,4.1
2022-08-03T06:18:28.941Z,3.8
2022-08-03T06:19:37.311Z,3.8
2022-08-03T06:20:45.678Z,3.8
2022-08-03T06:21:54.260Z,3.2
2022-08-03T06:23:02.626Z,3.2
2022-08-03T06:24:10.991Z,3.2
2022-08-03T06:25:21.128Z,3.3
2022-08-03T06:26:28.030Z,3.3
2022-08-03T06:27:36.887Z,3.3
2022-08-03T06:28:52.146Z,5
2022-08-03T06:29:53.292Z,5
2022-08-03T06:31:01.676Z,5
2022-08-03T06:32:10.302Z,5
2022-08-03T06:33:18.626Z,5
2022-08-03T06:34:31.832Z,5
2022-08-03T06:35:35.568Z,7
2022-08-03T06:36:43.939Z,7
2022-08-03T06:37:52.301Z,7
2022-08-03T06:39:00.874Z,3.7
2022-08-03T06:40:09.236Z,3.7
2022-08-03T06:41:17.615Z,3.7
2022-08-03T06:42:26.193Z,5
2022-08-03T06:43:35.712Z,5
2022-08-03T06:44:42.926Z,5
2022-08-03T06:45:51.512Z,4.8
2022-08-03T06:46:59.887Z,4.8
2022-08-03T06:48:08.254Z,4.8
2022-08-03T06:49:16.932Z,6.6
2022-08-03T06:50:26.239Z,6.6
2022-08-03T06:52:02.720Z,6.6
2022-08-03T06:52:42.175Z,3.9
2022-08-03T06:53:50.546Z,3.9
2022-08-03T06:54:58.916Z,3.9
2022-08-03T06:56:07.502Z,5.2
2022-08-03T06:57:15.852Z,5.2
2022-08-03T06:58:24.238Z,5.2
2022-08-03T07:00:07.032Z,3.9
2022-08-03T07:00:41.185Z,3.9
2022-08-03T07:01:49.608Z,3.9
2022-08-03T07:02:58.625Z,6.1
2022-08-03T07:04:06.540Z,6.1
2022-08-03T07:05:14.896Z,6.1
2022-08-03T07:06:23.481Z,5
2022-08-03T07:07:31.858Z,5
2022-08-03T07:08:40.225Z,5
2022-08-03T07:09:55.036Z,4.4
2022-08-03T07:10:57.169Z,4.4
2022-08-03T07:12:05.561Z,4.4
2022-08-03T07:13:14.143Z,7.2
2022-08-03T07:14:22.527Z,7.2
2022-08-03T07:15:38.571Z,7.2
2022-08-03T07:16:39.497Z,6.6
2022-08-03T07:17:47.982Z,6.6
2022-08-03T07:18:56.341Z,6.6
2022-08-03T07:20:04.930Z,3.9
2022-08-03T07:21:13.324Z,3.9
2022-08-03T07:22:21.702Z,3.9
2022-08-03T07:23:30.296Z,4.5
2022-08-03T07:24:38.671Z,4.5
2022-08-03T07:25:47.047Z,4.5
2022-08-03T07:26:55.611Z,3.8
2022-08-03T07:28:03.991Z,3.8
2022-08-03T07:29:14.952Z,3.8
2022-08-03T07:30:20.938Z,3.2
2022-08-03T07:31:34.303Z,3.2
2022-08-03T07:32:37.679Z,3.2
2022-08-03T07:33:46.278Z,4.1
2022-08-03T07:34:58.409Z,4.1
2022-08-03T07:36:03.047Z,4.1
2022-08-03T07:37:11.632Z,3.4
2022-08-03T07:38:21.102Z,3.4
2022-08-03T07:39:28.393Z,3.4
2022-08-03T07:40:36.975Z,3.3
2022-08-03T07:41:45.367Z,3.3
2022-08-03T07:42:53.738Z,3.3
2022-08-03T07:44:02.320Z,4.1
2022-08-03T07:45:13.956Z,4.1
2022-08-03T07:46:19.094Z,4.1
2022-08-03T07:47:35.159Z,3.1
2022-08-03T07:48:36.075Z,3.1
2022-08-03T07:49:44.574Z,3.1
2022-08-03T07:50:53.034Z,3.4
2022-08-03T07:52:01.401Z,3.4
2022-08-03T07:53:09.786Z,3.4
2022-08-03T07:54:18.348Z,3.2
2022-08-03T07:55:26.724Z,3.2
2022-08-03T07:56:35.097Z,3.2
2022-08-03T07:57:43.665Z,2.8
2022-08-03T07:58:52.034Z,2.8
2022-08-03T08:00:02.094Z,2.8
2022-08-03T08:01:09.044Z,2.1
2022-08-03T08:02:17.572Z,2.1
2022-08-03T08:03:25.755Z,2.1
2022-08-03T08:04:34.319Z,2.6
2022-08-03T08:05:42.708Z,2.6
2022-08-03T08:06:51.082Z,2.6
2022-08-03T08:07:59.652Z,2.4
2022-08-03T08:09:08.024Z,2.4
2022-08-03T08:10:16.415Z,2.4
2022-08-03T08:11:24.990Z,1.5
2022-08-03T08:12:33.372Z,1.5
2022-08-03T08:13:41.732Z,1.5
2022-08-03T08:14:50.310Z,1.9
2022-08-03T08:15:58.697Z,1.9
2022-08-03T08:17:07.429Z,1.9
2022-08-03T08:18:15.638Z,3.4
2022-08-03T08:19:24.012Z,3.4
2022-08-03T08:20:32.453Z,3.4
2022-08-03T08:21:53.360Z,3
2022-08-03T08:22:50.232Z,3
2022-08-03T08:23:58.589Z,3
2022-08-03T08:25:07.184Z,1.9
2022-08-03T08:26:15.557Z,1.9
2022-08-03T08:27:24.000Z,1.9
2022-08-03T08:28:33.774Z,2.6
2022-08-03T08:29:45.906Z,2.6
2022-08-03T08:30:49.371Z,2.6
2022-08-03T08:31:57.979Z,1.7
2022-08-03T08:33:06.353Z,1.7
2022-08-03T08:34:14.728Z,1.7
2022-08-03T08:35:23.311Z,2.4
2022-08-03T08:36:31.709Z,2.4
2022-08-03T08:37:40.059Z,2.4
2022-08-03T08:38:48.649Z,1.9
2022-08-03T08:39:57.032Z,1.9
2022-08-03T08:41:05.424Z,1.9
2022-08-03T08:42:14.024Z,3.7
2022-08-03T08:43:22.364Z,3.7
2022-08-03T08:44:30.740Z,3.7
2022-08-03T08:45:39.328Z,2.8
2022-08-03T08:46:47.837Z,2.8
2022-08-03T08:48:00.320Z,2.8
2022-08-03T08:49:05.140Z,1.9
2022-08-03T08:50:16.583Z,1.9
2022-08-03T08:51:21.562Z,1.9
2022-08-03T08:52:32.074Z,1.6
2022-08-03T08:53:38.507Z,1.6
2022-08-03T08:54:46.907Z,1.6
2022-08-03T08:55:56.990Z,2.2
2022-08-03T08:57:12.358Z,2.2
2022-08-03T08:58:13.102Z,2.2
2022-08-03T08:59:21.677Z,2
2022-08-03T09:00:30.082Z,2
2022-08-03T09:01:38.489Z,2
2022-08-03T09:02:47.037Z,2.1
2022-08-03T09:03:55.455Z,2.1
2022-08-03T09:05:07.273Z,2.1
2022-08-03T09:06:12.425Z,1.8
2022-08-03T09:07:20.965Z,1.8
2022-08-03T09:08:29.155Z,1.8
2022-08-03T09:10:04.842Z,2.1
2022-08-03T09:10:46.145Z,2.1
2022-08-03T09:12:01.101Z,2.1
2022-08-03T09:13:03.096Z,1.7
2022-08-03T09:14:37.157Z,1.7
2022-08-03T09:15:19.854Z,1.7
2022-08-03T09:16:28.429Z,2
2022-08-03T09:17:36.817Z,2
2022-08-03T09:18:45.163Z,2
2022-08-03T09:20:03.393Z,1.6
2022-08-03T09:21:14.857Z,1.6
2022-08-03T09:22:10.499Z,1.6
2022-08-03T09:23:51.300Z,1.7
2022-08-03T09:24:41.002Z,1.7
2022-08-03T09:25:35.837Z,1.7
2022-08-03T09:26:44.393Z,1.7
2022-08-03T09:27:53.439Z,1.7
2022-08-03T09:29:04.844Z,1.7
2022-08-03T09:30:32.172Z,3.1
2022-08-03T09:31:18.151Z,3.1
2022-08-03T09:32:26.508Z,3.1
2022-08-03T09:33:36.075Z,2.1
2022-08-03T09:34:43.461Z,2.1
2022-08-03T09:35:53.840Z,2.1
2022-08-03T09:37:00.423Z,2
2022-08-03T09:38:12.397Z,2
2022-08-03T09:39:17.182Z,2
2022-08-03T09:40:25.790Z,1.9
2022-08-03T09:41:34.177Z,1.9
2022-08-03T09:42:42.550Z,1.9
2022-08-03T09:43:51.134Z,2.7
2022-08-03T09:44:59.518Z,2.7
2022-08-03T09:46:07.900Z,2.7
2022-08-03T09:47:16.782Z,4.9
2022-08-03T09:48:24.850Z,4.9
2022-08-03T09:49:33.353Z,4.9
2022-08-03T09:50:41.838Z,1.8
2022-08-03T09:52:31.374Z,1.8
2022-08-03T09:52:58.572Z,1.8
2022-08-03T09:54:12.711Z,2
2022-08-03T09:55:23.902Z,2
2022-08-03T09:56:35.367Z,2
2022-08-03T09:57:32.492Z,1.6
2022-08-03T09:58:40.876Z,1.6
2022-08-03T09:59:49.283Z,1.6
2022-08-03T10:00:57.903Z,2.1
2022-08-03T10:02:06.222Z,2.1
2022-08-03T10:03:14.595Z,2.1
2022-08-03T10:04:23.206Z,1.5
2022-08-03T10:05:31.614Z,1.5
2022-08-03T10:06:39.965Z,1.5
2022-08-03T10:07:48.572Z,2
2022-08-03T10:08:56.929Z,2
2022-08-03T10:10:28.675Z,2
2022-08-03T10:11:13.920Z,1.6
2022-08-03T10:12:22.301Z,1.6
2022-08-03T10:13:30.671Z,1.6
2022-08-03T10:14:39.257Z,1.9
2022-08-03T10:16:20.881Z,1.9
2022-08-03T10:16:56.010Z,1.9
2022-08-03T10:18:04.592Z,3
2022-08-03T10:19:12.954Z,3
2022-08-03T10:20:21.337Z,3
2022-08-03T10:21:29.928Z,2.6
2022-08-03T10:22:38.299Z,2.6
2022-08-03T10:23:46.671Z,2.6
2022-08-03T10:24:55.243Z,2.4
2022-08-03T10:26:03.680Z,2.4
2022-08-03T10:27:12.027Z,2.4
2022-08-03T10:28:20.677Z,2.3
2022-08-03T10:29:29.061Z,2.3
2022-08-03T10:30:37.430Z,2.3
2022-08-03T10:31:54.628Z,2.8
2022-08-03T10:32:54.422Z,2.8
2022-08-03T10:34:02.792Z,2.8
2022-08-03T10:35:12.431Z,1.8
2022-08-03T10:36:19.782Z,1.8
2022-08-03T10:37:28.159Z,1.8
2022-08-03T10:38:36.766Z,3.3
2022-08-03T10:39:45.415Z,3.3
2022-08-03T10:40:57.215Z,3.3
2022-08-03T10:42:02.529Z,1.9
2022-08-03T10:43:10.457Z,1.9
2022-08-03T10:44:18.838Z,1.9
2022-08-03T10:45:27.451Z,1.6
2022-08-03T10:46:35.808Z,1.6
2022-08-03T10:47:44.188Z,1.6
2022-08-03T10:48:52.889Z,1.6
2022-08-03T10:50:01.142Z,1.6
2022-08-03T10:51:09.514Z,1.6
2022-08-03T10:52:31.713Z,2.4
2022-08-03T10:53:26.441Z,2.4
2022-08-03T10:54:34.841Z,2.4
2022-08-03T10:55:43.419Z,2.4
2022-08-03T10:56:51.802Z,2.4
2022-08-03T10:58:00.168Z,2.4
2022-08-03T10:59:09.013Z,2.2
2022-08-03T11:00:17.129Z,2.2
2022-08-03T11:01:25.526Z,2.2
2022-08-03T11:02:34.096Z,3.3
2022-08-03T11:03:42.465Z,3.3
2022-08-03T11:04:50.856Z,3.3
2022-08-03T11:05:59.436Z,2.1
2022-08-03T11:07:07.822Z,2.1
2022-08-03T11:08:16.201Z,2.1
2022-08-03T11:09:24.781Z,4
2022-08-03T11:10:33.140Z,4
2022-08-03T11:11:41.523Z,4
2022-08-03T11:12:50.113Z,6.8
2022-08-03T11:13:58.491Z,6.8
2022-08-03T11:15:07.167Z,6.8
2022-08-03T11:16:19.867Z,2.1
2022-08-03T11:17:23.806Z,2.1
2022-08-03T11:18:32.154Z,2.1
2022-08-03T11:19:57.163Z,3.7
2022-08-03T11:20:49.159Z,3.7
2022-08-03T11:21:57.521Z,3.7
2022-08-03T11:23:06.106Z,2.4
2022-08-03T11:24:14.479Z,2.4
2022-08-03T11:25:34.721Z,2.4
2022-08-03T11:26:31.432Z,1.9
2022-08-03T11:27:39.812Z,1.9
2022-08-03T11:28:48.202Z,1.9
2022-08-03T11:29:56.794Z,2.4
2022-08-03T11:31:05.168Z,2.4
2022-08-03T11:32:16.670Z,2.4
2022-08-03T11:33:22.120Z,1.9
2022-08-03T11:34:30.512Z,1.9
2022-08-03T11:35:38.874Z,1.9
2022-08-03T11:36:47.449Z,2.4
2022-08-03T11:38:01.677Z,2.4
2022-08-03T11:39:04.218Z,2.4
2022-08-03T11:40:12.799Z,2.4
2022-08-03T11:41:21.169Z,2.4
2022-08-03T11:42:29.559Z,2.4
2022-08-03T11:43:38.127Z,3
2022-08-03T11:44:47.588Z,3
2022-08-03T11:45:54.913Z,3
2022-08-03T11:47:03.486Z,2.6
2022-08-03T11:48:11.864Z,2.6
2022-08-03T11:49:20.304Z,2.6
2022-08-03T11:50:28.821Z,2.2
2022-08-03T11:51:37.192Z,2.2
2022-08-03T11:52:45.576Z,2.2
2022-08-03T11:53:54.153Z,1.6
2022-08-03T11:55:02.515Z,1.6
2022-08-03T11:56:12.485Z,1.6
2022-08-03T11:57:19.608Z,2.4
2022-08-03T11:59:00.701Z,2.4
2022-08-03T11:59:36.210Z,2.4
2022-08-03T12:00:44.781Z,3
2022-08-03T12:01:53.148Z,3
2022-08-03T12:03:01.649Z,3
2022-08-03T12:04:10.099Z,1.9
2022-08-03T12:05:18.670Z,1.9
2022-08-03T12:06:27.011Z,1.9
2022-08-03T12:08:02.778Z,1.6
2022-08-03T12:08:44.025Z,1.6
2022-08-03T12:09:52.412Z,1.6
2022-08-03T12:11:01.010Z,1.9
2022-08-03T12:12:09.397Z,1.9
2022-08-03T12:13:56.945Z,1.9
2022-08-03T12:14:46.158Z,1.9
2022-08-03T12:15:34.737Z,1.9
2022-08-03T12:16:43.121Z,1.9
2022-08-03T12:17:54.810Z,2.7
2022-08-03T12:19:00.140Z,2.7
2022-08-03T12:20:08.507Z,2.7
2022-08-03T12:21:17.087Z,2
2022-08-03T12:22:25.453Z,2
2022-08-03T12:23:37.623Z,2
2022-08-03T12:24:42.414Z,1.7
2022-08-03T12:25:50.767Z,1.7
2022-08-03T12:26:59.949Z,1.7
2022-08-03T12:28:28.473Z,3.4
2022-08-03T12:29:16.129Z,3.4
2022-08-03T12:30:24.512Z,3.4
2022-08-03T12:31:33.092Z,2
2022-08-03T12:32:41.462Z,2
2022-08-03T12:33:49.852Z,2
2022-08-03T12:34:59.947Z,2.1
2022-08-03T12:36:06.813Z,2.1
2022-08-03T12:37:19.162Z,2.1
2022-08-03T12:38:23.773Z,2
2022-08-03T12:39:32.154Z,2
2022-08-03T12:40:40.523Z,2
2022-08-03T12:41:49.096Z,2.8
2022-08-03T12:42:57.490Z,2.8
2022-08-03T12:44:05.890Z,2.8
2022-08-03T12:45:14.439Z,1.7
2022-08-03T12:46:22.805Z,1.7
2022-08-03T12:47:31.195Z,1.7
2022-08-03T12:48:39.770Z,2
2022-08-03T12:49:48.142Z,2
2022-08-03T12:50:56.509Z,2
2022-08-03T12:52:07.538Z,1.8
2022-08-03T12:53:13.496Z,1.8
2022-08-03T12:54:24.308Z,1.8
2022-08-03T12:55:30.462Z,3.5
2022-08-03T12:56:38.874Z,3.5
2022-08-03T12:57:47.254Z,3.5
2022-08-03T12:58:55.838Z,2.1
2022-08-03T13:00:04.214Z,2.1
2022-08-03T13:01:13.659Z,2.1
2022-08-03T13:02:21.242Z,1.8
2022-08-03T13:03:38.684Z,1.8
2022-08-03T13:04:38.513Z,1.8
2022-08-03T13:05:47.106Z,2.4
2022-08-03T13:07:02.437Z,2.4
2022-08-03T13:08:03.888Z,2.4
2022-08-03T13:09:12.508Z,2.3
2022-08-03T13:10:20.884Z,2.3
2022-08-03T13:11:29.483Z,2.3
2022-08-03T13:12:37.857Z,2
2022-08-03T13:13:46.231Z,2
2022-08-03T13:14:54.649Z,2
2022-08-03T13:16:03.267Z,2.3
2022-08-03T13:17:11.633Z,2.3
2022-08-03T13:18:20.047Z,2.3
2022-08-03T13:19:28.652Z,3.2
2022-08-03T13:20:37.024Z,3.2
2022-08-03T13:21:53.355Z,3.2
2022-08-03T13:22:56.011Z,2.7
2022-08-03T13:24:02.388Z,2.7
2022-08-03T13:25:10.786Z,2.7
2022-08-03T13:26:19.383Z,2.6
2022-08-03T13:28:02.772Z,2.6
2022-08-03T13:28:36.185Z,2.6
2022-08-03T13:29:44.759Z,2.2
2022-08-03T13:30:53.131Z,2.2
2022-08-03T13:32:01.530Z,2.2
2022-08-03T13:33:10.122Z,2.4
2022-08-03T13:34:22.494Z,2.4
2022-08-03T13:35:26.938Z,2.4
2022-08-03T13:36:53.068Z,2.4
2022-08-03T13:37:43.915Z,2.4
2022-08-03T13:38:52.344Z,2.4
2022-08-03T13:40:02.801Z,2.3
2022-08-03T13:41:09.322Z,2.3
2022-08-03T13:42:17.720Z,2.3
2022-08-03T13:43:26.298Z,2.1
2022-08-03T13:44:34.669Z,2.1
2022-08-03T13:45:47.563Z,2.1
2022-08-03T13:46:51.622Z,2.4
2022-08-03T13:48:00.041Z,2.4
2022-08-03T13:49:08.418Z,2.4
2022-08-03T13:50:16.981Z,2.2
2022-08-03T13:51:26.904Z,2.2
2022-08-03T13:52:33.877Z,2.2
2022-08-03T13:53:42.415Z,2.5
2022-08-03T13:54:50.860Z,2.5
2022-08-03T13:55:59.232Z,2.5
2022-08-03T13:58:01.495Z,4.3
2022-08-03T13:58:17.062Z,4.3
2022-08-03T13:59:26.009Z,4.3
2022-08-03T14:00:35.501Z,1.9
2022-08-03T14:01:54.719Z,1.9
2022-08-03T14:02:52.327Z,1.9
2022-08-03T14:04:00.896Z,2.6
2022-08-03T14:05:09.330Z,2.6
2022-08-03T14:06:17.751Z,2.6
2022-08-03T14:07:26.369Z,2.6
2022-08-03T14:08:34.736Z,2.6
2022-08-03T14:09:43.168Z,2.6
2022-08-03T14:10:51.753Z,2.2
2022-08-03T14:12:04.237Z,2.2
2022-08-03T14:13:08.569Z,2.2
2022-08-03T14:14:17.150Z,1.9
2022-08-03T14:15:25.557Z,1.9
2022-08-03T14:16:33.944Z,1.9
2022-08-03T14:17:49.831Z,3.2
2022-08-03T14:18:51.022Z,3.2
2022-08-03T14:19:59.418Z,3.2
2022-08-03T14:21:07.997Z,2.7
2022-08-03T14:22:16.444Z,2.7
2022-08-03T14:23:24.812Z,2.7
2022-08-03T14:24:33.440Z,2.7
2022-08-03T14:25:43.357Z,2.7
2022-08-03T14:26:50.235Z,2.7
2022-08-03T14:27:58.869Z,2.1
2022-08-03T14:29:07.206Z,2.1
2022-08-03T15:03:51.239Z,0
2022-08-03T15:04:59.644Z,0
2022-08-03T15:06:08.051Z,0
2022-08-03T15:07:16.658Z,2.5
2022-08-03T15:08:25.077Z,2.5
2022-08-03T15:09:33.410Z,2.5
2022-08-03T15:10:44.663Z,4.5
2022-08-03T15:11:50.415Z,4.5
2022-08-03T15:12:58.801Z,4.5
2022-08-03T15:14:09.464Z,3.8
2022-08-03T15:15:15.808Z,3.8
2022-08-03T15:16:24.186Z,3.8
2022-08-03T15:17:32.900Z,3
2022-08-03T15:18:41.201Z,3
2022-08-03T15:20:00.195Z,3
2022-08-03T15:20:58.158Z,2.3
2022-08-03T15:22:06.544Z,2.3
2022-08-03T15:23:14.918Z,2.3
2022-08-03T15:24:23.530Z,2.1
2022-08-03T15:26:01.878Z,2.1
2022-08-03T15:26:41.698Z,2.1
2022-08-03T15:28:03.218Z,2.2
2022-08-03T15:28:57.263Z,2.2
2022-08-03T15:30:09.736Z,2.2
2022-08-03T15:31:18.799Z,2.4
2022-08-03T15:32:22.704Z,2.4
2022-08-03T15:33:31.108Z,2.4
2022-08-03T15:34:39.678Z,3.8
2022-08-03T15:35:48.110Z,3.8
2022-08-03T15:36:56.493Z,3.8
2022-08-03T15:38:09.161Z,2
2022-08-03T15:39:13.507Z,2
2022-08-03T15:40:21.898Z,2
2022-08-03T15:41:30.516Z,3
2022-08-03T15:42:38.896Z,3
2022-08-03T15:43:47.535Z,3
2022-08-03T15:44:55.887Z,2.6
2022-08-03T15:46:28.999Z,2.6
2022-08-03T15:47:12.723Z,2.6
2022-08-03T15:48:21.302Z,2.5
2022-08-03T15:49:29.715Z,2.5
2022-08-03T15:50:38.369Z,2.5
2022-08-03T15:51:46.902Z,4.4
2022-08-03T15:52:55.288Z,4.4
2022-08-03T15:54:03.701Z,4.4
2022-08-03T15:55:15.420Z,3.7
2022-08-03T15:56:20.698Z,3.7
2022-08-03T15:57:29.086Z,3.7
2022-08-03T15:58:59.059Z,4.7
2022-08-03T15:59:46.136Z,4.7
2022-08-03T16:00:54.529Z,4.7
2022-08-03T16:02:03.231Z,2.1
2022-08-03T16:03:11.551Z,2.1
2022-08-03T16:04:19.926Z,2.1
2022-08-03T16:05:28.560Z,2.8
2022-08-03T16:06:36.951Z,2.8
2022-08-03T16:08:02.587Z,2.8
2022-08-03T16:08:53.908Z,2.7
2022-08-03T16:10:02.348Z,2.7
2022-08-03T16:11:10.685Z,2.7
2022-08-03T16:12:19.293Z,4.5
2022-08-03T16:14:04.849Z,4.5
2022-08-03T16:14:43.570Z,4.5
2022-08-03T16:15:44.713Z,3.5
2022-08-03T16:16:53.758Z,3.5
2022-08-03T16:18:02.181Z,3.5
2022-08-03T16:19:10.761Z,4.2
2022-08-03T16:20:29.361Z,4.2
2022-08-03T16:21:27.618Z,4.2
2022-08-03T16:22:36.182Z,3.8
2022-08-03T16:23:44.573Z,3.8
2022-08-03T16:24:52.946Z,3.8